33V

Walden-Jackson County Airport

Walden, Colorado, USA
METAR K33V 220255Z AUTO 14005KT 10SM CLR 09/M14 A3040 RMK AO1
Observed Flight Rules
Sep-22 @ 02:55 UTC (41 minutes ago) Visual Flight Rules
Wind Visibility Clouds
140° at 5 knots 10 miles
Temperatures Readings
Current 9°C / 48°F
Dewpoint -14°C / 7°F
Humidity 18%
Altimeter 30.4" Hg
Pressure 1029 hPa
Elevation 2484
METAR K33V 220255Z AUTO 14005KT 10SM CLR 09/M14 A3040 RMK AO1
Observed Flight Rules
Sep-22 @ 02:55 UTC
(41 minutes ago)
VFR
Wind Visibility
140° at 5 knots 10 miles
Clouds
Temperature Dewpoint
9°C / 48°F -14°C / 7°F
Humidity Altimeter Pressure
18% 30.4" Hg 1029 hPa